Time;durP1;ratioP1;P1;durP2;ratioP2;P2;SDS_P1;SDS_P2;PMS_P1;PMS_P2;Temp;Humidity;BMP_temperature;BMP_pressure;BME280_temperature;BME280_humidity;BME280_pressure;Samples;Min_cycle;Max_cycle;Signal;HPM_P1;HPM_P2
2020/12/28 00:00:11;;;;;;;8.93;5.77;;;;;;;;;;5027257;28;20596;-74
2020/12/28 00:03:18;;;;;;;9.60;6.20;;;;;;;;;;5013469;28;20534;-74
2020/12/28 00:06:22;;;;;;;9.17;6.17;;;;;;;;;;5002086;28;20612;-74
2020/12/28 00:09:27;;;;;;;9.70;6.00;;;;;;;;;;4991477;28;20627;-74
2020/12/28 00:12:46;;;;;;;8.47;6.40;;;;;;;;;;5007059;28;20639;-74
2020/12/28 00:15:51;;;;;;;9.37;6.03;;;;;;;;;;5013235;28;20584;-74
2020/12/28 00:18:55;;;;;;;10.43;6.20;;;;;;;;;;5033857;28;20611;-74
2020/12/28 00:21:59;;;;;;;8.10;5.40;;;;;;;;;;5034121;28;20658;-74
2020/12/28 00:25:04;;;;;;;8.40;6.07;;;;;;;;;;5019669;28;20931;-74
2020/12/28 00:28:08;;;;;;;8.90;5.60;;;;;;;;;;5015470;28;21156;-74
2020/12/28 00:31:13;;;;;;;7.83;5.67;;;;;;;;;;5028716;28;20643;-74
2020/12/28 00:34:16;;;;;;;7.90;5.73;;;;;;;;;;5020823;28;20623;-74
2020/12/28 00:37:21;;;;;;;9.20;6.00;;;;;;;;;;5021378;28;20599;-74
2020/12/28 00:40:24;;;;;;;6.43;5.07;;;;;;;;;;5033514;28;20615;-75
2020/12/28 00:43:29;;;;;;;10.03;6.07;;;;;;;;;;4996344;28;21056;-74
2020/12/28 00:46:33;;;;;;;8.87;5.67;;;;;;;;;;5002416;28;21093;-74
2020/12/28 00:49:37;;;;;;;7.80;5.50;;;;;;;;;;5028025;28;20588;-74
2020/12/28 00:52:41;;;;;;;8.73;5.83;;;;;;;;;;5021477;28;20622;-74
2020/12/28 00:55:45;;;;;;;9.20;6.50;;;;;;;;;;5005621;28;20592;-74
2020/12/28 00:58:50;;;;;;;11.60;6.20;;;;;;;;;;5012745;28;20619;-74
2020/12/28 01:01:57;;;;;;;12.30;7.40;;;;;;;;;;5010359;28;20674;-74
2020/12/28 01:05:02;;;;;;;9.17;6.47;;;;;;;;;;5021024;28;20591;-74
2020/12/28 01:08:12;;;;;;;8.67;5.90;;;;;;;;;;5018970;28;20726;-74
2020/12/28 01:11:21;;;;;;;9.33;6.23;;;;;;;;;;4990581;28;20956;-74
2020/12/28 01:14:27;;;;;;;10.43;6.50;;;;;;;;;;4987847;28;20612;-74
2020/12/28 01:17:31;;;;;;;9.80;6.10;;;;;;;;;;4991157;28;20623;-74
2020/12/28 01:20:55;;;;;;;9.33;6.10;;;;;;;;;;4998565;28;20588;-74
2020/12/28 01:23:59;;;;;;;9.73;6.00;;;;;;;;;;5019072;28;20580;-74
2020/12/28 01:27:06;;;;;;;10.30;6.57;;;;;;;;;;5001572;28;20600;-74
2020/12/28 01:30:11;;;;;;;8.63;6.37;;;;;;;;;;5019445;28;20982;-74
2020/12/28 01:33:16;;;;;;;11.80;7.00;;;;;;;;;;5008733;28;20872;-74
2020/12/28 01:36:30;;;;;;;10.10;6.07;;;;;;;;;;4982035;28;20567;-74
2020/12/28 01:39:34;;;;;;;8.13;5.87;;;;;;;;;;5007888;28;20959;-74
2020/12/28 01:42:38;;;;;;;10.00;6.70;;;;;;;;;;4981994;28;21207;-74
2020/12/28 01:45:42;;;;;;;8.00;5.97;;;;;;;;;;4998051;28;21185;-74
2020/12/28 01:48:50;;;;;;;10.13;6.93;;;;;;;;;;4998401;28;20592;-74
2020/12/28 01:52:02;;;;;;;10.30;6.87;;;;;;;;;;5019371;28;21254;-75
2020/12/28 01:55:09;;;;;;;9.73;6.80;;;;;;;;;;5016229;28;20626;-74
2020/12/28 01:58:28;;;;;;;10.20;6.83;;;;;;;;;;5021313;28;20616;-74
2020/12/28 02:01:38;;;;;;;9.83;6.57;;;;;;;;;;5006165;28;20674;-74
2020/12/28 02:04:42;;;;;;;8.53;6.83;;;;;;;;;;5005059;28;20592;-74
2020/12/28 02:07:53;;;;;;;9.00;6.63;;;;;;;;;;4985540;28;21080;-74
2020/12/28 02:10:59;;;;;;;10.90;6.90;;;;;;;;;;4985768;28;20878;-74
2020/12/28 02:14:04;;;;;;;10.40;6.40;;;;;;;;;;4995474;28;20595;-74
2020/12/28 02:17:17;;;;;;;8.43;6.27;;;;;;;;;;5009426;28;20638;-74
2020/12/28 02:20:32;;;;;;;9.13;6.37;;;;;;;;;;5024494;28;20544;-74
2020/12/28 02:23:36;;;;;;;10.37;6.20;;;;;;;;;;5010319;28;20632;-74
2020/12/28 02:26:40;;;;;;;10.03;7.00;;;;;;;;;;5005588;28;20587;-74
2020/12/28 02:29:44;;;;;;;9.03;6.70;;;;;;;;;;5016847;28;20595;-74
2020/12/28 02:32:53;;;;;;;10.53;6.70;;;;;;;;;;5004227;28;20620;-74
2020/12/28 02:36:11;;;;;;;9.67;6.47;;;;;;;;;;5005137;28;20553;-74
2020/12/28 02:39:15;;;;;;;9.10;6.37;;;;;;;;;;5003858;28;20618;-74
2020/12/28 02:42:20;;;;;;;9.57;6.50;;;;;;;;;;4992958;28;20664;-74
2020/12/28 02:45:59;;;;;;;13.33;6.50;;;;;;;;;;4971146;28;20594;-75
2020/12/28 02:49:22;;;;;;;9.67;6.63;;;;;;;;;;4998183;28;20596;-74
2020/12/28 02:52:45;;;;;;;10.83;6.57;;;;;;;;;;5006999;28;20644;-74
2020/12/28 02:56:07;;;;;;;9.33;5.80;;;;;;;;;;5016156;28;20603;-74
2020/12/28 02:59:30;;;;;;;9.53;6.37;;;;;;;;;;5026141;28;20591;-74
2020/12/28 03:02:52;;;;;;;12.27;6.13;;;;;;;;;;5018215;28;20647;-74
2020/12/28 03:06:15;;;;;;;8.70;5.93;;;;;;;;;;4996456;28;20901;-74
2020/12/28 03:09:37;;;;;;;11.03;6.10;;;;;;;;;;5015254;28;20585;-74
2020/12/28 03:13:00;;;;;;;9.97;6.30;;;;;;;;;;5016139;28;20625;-74
2020/12/28 03:16:22;;;;;;;8.70;6.10;;;;;;;;;;4987172;28;20534;-74
2020/12/28 03:19:56;;;;;;;10.20;6.80;;;;;;;;;;4977775;28;20631;-75
2020/12/28 03:23:18;;;;;;;7.63;5.67;;;;;;;;;;5031719;28;20635;-74
2020/12/28 03:27:01;;;;;;;10.17;6.77;;;;;;;;;;4993431;28;20955;-74
2020/12/28 03:30:38;;;;;;;10.30;6.83;;;;;;;;;;4986323;28;20631;-74
2020/12/28 03:34:01;;;;;;;10.90;6.50;;;;;;;;;;5015503;28;21087;-74
2020/12/28 03:37:23;;;;;;;8.87;6.37;;;;;;;;;;4996158;28;20633;-74
2020/12/28 03:40:46;;;;;;;11.93;7.40;;;;;;;;;;5011883;28;20584;-74
2020/12/28 03:44:09;;;;;;;10.90;6.70;;;;;;;;;;5016793;28;20592;-74
2020/12/28 03:47:31;;;;;;;9.27;6.47;;;;;;;;;;5034924;28;20559;-74
2020/12/28 03:50:54;;;;;;;10.43;6.47;;;;;;;;;;5009866;28;20584;-74
2020/12/28 03:54:17;;;;;;;9.87;6.27;;;;;;;;;;5015119;28;20950;-74
2020/12/28 03:57:39;;;;;;;8.57;6.40;;;;;;;;;;5015123;28;20549;-74
2020/12/28 04:01:04;;;;;;;12.50;6.97;;;;;;;;;;5015106;28;20569;-74
2020/12/28 04:04:26;;;;;;;7.90;5.47;;;;;;;;;;5014810;28;20540;-74
2020/12/28 04:07:49;;;;;;;9.83;6.97;;;;;;;;;;4995502;28;20890;-74
2020/12/28 04:11:11;;;;;;;11.07;6.83;;;;;;;;;;5010645;28;20647;-74
2020/12/28 04:14:39;;;;;;;11.33;7.10;;;;;;;;;;5013622;28;20599;-74
2020/12/28 04:17:43;;;;;;;9.63;7.07;;;;;;;;;;5034586;28;20614;-75
2020/12/28 04:20:47;;;;;;;12.10;7.77;;;;;;;;;;5030118;28;20595;-74
2020/12/28 04:23:51;;;;;;;12.43;6.80;;;;;;;;;;5021658;28;20598;-74
2020/12/28 04:26:56;;;;;;;9.30;6.53;;;;;;;;;;5014971;28;20963;-74
2020/12/28 04:30:00;;;;;;;10.73;6.97;;;;;;;;;;5031671;22;20671;-72
2020/12/28 04:33:04;;;;;;;12.87;6.93;;;;;;;;;;5017504;28;20648;-72
2020/12/28 04:36:08;;;;;;;11.67;7.43;;;;;;;;;;5002220;28;20963;-72
2020/12/28 04:39:12;;;;;;;10.37;6.90;;;;;;;;;;5013650;28;20599;-72
2020/12/28 04:42:27;;;;;;;11.60;7.13;;;;;;;;;;5015282;28;20731;-72
2020/12/28 04:45:31;;;;;;;10.43;6.63;;;;;;;;;;5014445;28;20608;-71
2020/12/28 04:48:35;;;;;;;11.33;7.00;;;;;;;;;;5002099;28;20557;-71
2020/12/28 04:51:39;;;;;;;10.60;7.10;;;;;;;;;;5015268;28;20729;-71
2020/12/28 04:54:47;;;;;;;11.47;7.50;;;;;;;;;;5021712;28;20547;-71
2020/12/28 04:57:51;;;;;;;9.30;7.10;;;;;;;;;;5017086;28;20593;-71
2020/12/28 05:00:57;;;;;;;10.13;7.23;;;;;;;;;;5001972;28;20928;-72
2020/12/28 05:04:01;;;;;;;11.30;6.80;;;;;;;;;;5013816;28;21208;-72
2020/12/28 05:07:06;;;;;;;16.20;7.27;;;;;;;;;;5028002;28;20591;-72
2020/12/28 05:10:20;;;;;;;12.03;7.23;;;;;;;;;;5031975;28;20947;-71
2020/12/28 05:13:24;;;;;;;12.70;7.13;;;;;;;;;;5033566;28;21093;-71
2020/12/28 05:16:28;;;;;;;9.67;6.97;;;;;;;;;;5023741;28;20581;-72
2020/12/28 05:19:34;;;;;;;9.90;7.27;;;;;;;;;;5033046;28;20580;-71
2020/12/28 05:22:38;;;;;;;12.23;7.57;;;;;;;;;;5033073;28;20655;-72
2020/12/28 05:25:47;;;;;;;10.20;6.87;;;;;;;;;;5008038;28;20591;-72
2020/12/28 05:28:55;;;;;;;9.03;7.00;;;;;;;;;;5020543;28;20583;-73
2020/12/28 05:31:59;;;;;;;9.53;6.90;;;;;;;;;;5033107;28;20646;-72
2020/12/28 05:35:04;;;;;;;9.23;6.80;;;;;;;;;;5016786;28;20585;-73
2020/12/28 05:38:09;;;;;;;12.57;7.37;;;;;;;;;;5013517;28;20600;-73
2020/12/28 05:41:13;;;;;;;11.27;7.07;;;;;;;;;;5002719;28;20651;-73
2020/12/28 05:44:18;;;;;;;11.13;8.10;;;;;;;;;;5001210;28;20601;-73
2020/12/28 05:47:27;;;;;;;10.40;7.40;;;;;;;;;;5017006;28;20606;-73
2020/12/28 05:50:31;;;;;;;16.93;7.37;;;;;;;;;;5019855;28;20955;-73
2020/12/28 05:53:41;;;;;;;10.80;7.30;;;;;;;;;;5020931;28;20599;-73
2020/12/28 05:56:46;;;;;;;10.60;6.57;;;;;;;;;;5022072;28;20956;-73
2020/12/28 05:59:51;;;;;;;11.60;6.70;;;;;;;;;;4981749;28;20541;-73
2020/12/28 06:03:08;;;;;;;12.93;7.07;;;;;;;;;;4993582;28;20676;-73
2020/12/28 06:06:15;;;;;;;16.20;6.93;;;;;;;;;;5005999;28;20603;-73
2020/12/28 06:09:19;;;;;;;8.97;6.60;;;;;;;;;;5032624;28;20598;-74
2020/12/28 06:12:24;;;;;;;9.50;6.67;;;;;;;;;;5032409;28;20651;-73
2020/12/28 06:15:29;;;;;;;15.10;7.80;;;;;;;;;;5033050;28;20535;-73
2020/12/28 06:18:33;;;;;;;11.83;7.70;;;;;;;;;;4993578;28;20557;-73
2020/12/28 06:21:37;;;;;;;10.80;7.23;;;;;;;;;;5006747;28;20657;-73
2020/12/28 06:24:41;;;;;;;11.50;7.17;;;;;;;;;;5000762;28;20628;-73
2020/12/28 06:27:46;;;;;;;11.00;7.37;;;;;;;;;;5008871;28;20601;-73
2020/12/28 06:30:50;;;;;;;11.83;6.87;;;;;;;;;;5012435;28;20647;-73
2020/12/28 06:33:54;;;;;;;10.37;7.33;;;;;;;;;;5001242;28;20887;-73
2020/12/28 06:37:00;;;;;;;9.90;6.63;;;;;;;;;;5031431;28;20600;-73
2020/12/28 06:40:04;;;;;;;11.10;7.60;;;;;;;;;;5036172;28;20595;-73
2020/12/28 06:43:15;;;;;;;12.07;8.70;;;;;;;;;;5036216;28;20590;-73
2020/12/28 06:46:23;;;;;;;11.00;7.27;;;;;;;;;;4999760;28;20611;-73
2020/12/28 06:49:27;;;;;;;10.63;7.33;;;;;;;;;;5016700;28;20555;-73
2020/12/28 06:52:31;;;;;;;10.43;6.90;;;;;;;;;;5016291;28;20635;-73
2020/12/28 06:55:35;;;;;;;9.63;7.07;;;;;;;;;;5010522;28;20591;-73
2020/12/28 06:58:40;;;;;;;12.40;7.57;;;;;;;;;;5027082;28;21153;-73
2020/12/28 07:01:46;;;;;;;10.37;7.43;;;;;;;;;;5015812;28;20652;-73
2020/12/28 07:04:50;;;;;;;12.03;7.07;;;;;;;;;;5004138;28;20596;-73
2020/12/28 07:07:55;;;;;;;9.63;6.50;;;;;;;;;;5016350;28;21087;-73
2020/12/28 07:11:08;;;;;;;11.77;7.33;;;;;;;;;;5015791;28;20588;-73
2020/12/28 07:14:12;;;;;;;9.57;6.73;;;;;;;;;;5017872;28;20610;-73
2020/12/28 07:17:25;;;;;;;10.97;7.10;;;;;;;;;;5008140;28;20576;-73
2020/12/28 07:20:29;;;;;;;23.57;14.47;;;;;;;;;;5007403;28;21232;-72
2020/12/28 07:23:34;;;;;;;12.93;8.57;;;;;;;;;;5025081;28;20622;-73
2020/12/28 07:26:41;;;;;;;8.43;6.63;;;;;;;;;;5023496;28;20563;-73
2020/12/28 07:29:45;;;;;;;9.03;6.73;;;;;;;;;;5006173;28;20623;-74
2020/12/28 07:32:56;;;;;;;13.47;6.53;;;;;;;;;;5006417;28;20642;-73
2020/12/28 07:36:11;;;;;;;9.93;6.70;;;;;;;;;;5035363;28;21101;-73
2020/12/28 07:39:16;;;;;;;10.80;7.13;;;;;;;;;;5035251;28;20595;-73
2020/12/28 07:42:29;;;;;;;11.40;7.67;;;;;;;;;;5022678;28;20994;-73
2020/12/28 07:45:33;;;;;;;12.97;8.83;;;;;;;;;;4995020;28;20541;-73
2020/12/28 07:48:38;;;;;;;13.77;6.70;;;;;;;;;;4995460;28;20557;-73
2020/12/28 07:51:49;;;;;;;8.20;5.53;;;;;;;;;;5000540;28;20651;-73
2020/12/28 07:55:02;;;;;;;8.27;5.63;;;;;;;;;;4995549;28;20585;-73
2020/12/28 07:58:30;;;;;;;9.40;6.33;;;;;;;;;;4983345;28;20534;-73
2020/12/28 08:01:44;;;;;;;9.17;5.90;;;;;;;;;;4995322;28;21199;-73
2020/12/28 08:04:49;;;;;;;6.67;5.07;;;;;;;;;;5022512;28;20624;-73
2020/12/28 08:07:53;;;;;;;6.97;5.00;;;;;;;;;;5012810;28;20588;-73
2020/12/28 08:10:59;;;;;;;7.93;5.10;;;;;;;;;;5014832;28;20537;-73
2020/12/28 08:14:09;;;;;;;30.43;6.27;;;;;;;;;;5014061;28;20529;-73
2020/12/28 08:17:13;;;;;;;17.17;5.93;;;;;;;;;;5014780;28;20556;-73
2020/12/28 08:20:17;;;;;;;8.10;5.80;;;;;;;;;;5008465;28;20943;-73
2020/12/28 08:23:26;;;;;;;10.47;7.17;;;;;;;;;;5017893;28;21137;-73
2020/12/28 08:26:30;;;;;;;11.40;7.20;;;;;;;;;;5018167;28;20595;-73
2020/12/28 08:29:34;;;;;;;10.03;6.90;;;;;;;;;;5014523;28;20585;-73
2020/12/28 08:32:40;;;;;;;10.23;7.67;;;;;;;;;;5014371;28;20640;-73
2020/12/28 08:35:50;;;;;;;11.73;7.00;;;;;;;;;;5022249;28;20963;-73
2020/12/28 08:38:54;;;;;;;11.43;7.87;;;;;;;;;;5022283;28;21146;-73
2020/12/28 08:42:00;;;;;;;12.70;7.60;;;;;;;;;;5016750;28;20647;-73
2020/12/28 08:45:04;;;;;;;11.00;7.43;;;;;;;;;;5001976;28;20624;-73
2020/12/28 08:48:08;;;;;;;9.27;6.20;;;;;;;;;;5013944;28;20595;-73
2020/12/28 10:04:36;;;;;;;13.97;8.07;;;;;;;;;;4995013;28;20656;-73
2020/12/28 10:07:41;;;;;;;10.07;6.80;;;;;;;;;;4992773;28;20572;-73
2020/12/28 10:10:44;;;;;;;35.17;10.57;;;;;;;;;;4984388;28;20593;-73
2020/12/28 10:13:48;;;;;;;21.00;9.97;;;;;;;;;;4997787;28;21110;-73
2020/12/28 10:16:53;;;;;;;57.03;24.77;;;;;;;;;;4985251;28;20550;-74
2020/12/28 10:19:57;;;;;;;15.83;9.93;;;;;;;;;;4977559;28;20562;-73
2020/12/28 10:23:01;;;;;;;17.53;10.20;;;;;;;;;;4983414;28;20640;-73
2020/12/28 10:26:06;;;;;;;19.13;11.37;;;;;;;;;;5003639;28;20706;-73
2020/12/28 10:33:23;;;;;;;15.57;9.20;;;;;;;;;;4970044;28;20630;-73
2020/12/28 10:36:30;;;;;;;16.00;9.30;;;;;;;;;;4978065;28;20542;-74
2020/12/28 10:39:34;;;;;;;19.73;12.73;;;;;;;;;;4966133;28;20551;-73
2020/12/28 10:42:38;;;;;;;16.83;10.33;;;;;;;;;;4978341;28;20628;-74
2020/12/28 10:45:42;;;;;;;23.97;14.00;;;;;;;;;;4977359;28;21242;-74
2020/12/28 10:48:47;;;;;;;17.17;11.67;;;;;;;;;;4965909;28;20595;-74
2020/12/28 10:51:50;;;;;;;13.60;9.33;;;;;;;;;;4977268;28;20660;-74
2020/12/28 10:54:55;;;;;;;15.93;9.17;;;;;;;;;;4976516;28;20594;-74
2020/12/28 10:57:59;;;;;;;16.10;10.30;;;;;;;;;;4965011;28;20594;-74
2020/12/28 11:01:06;;;;;;;39.57;19.53;;;;;;;;;;4976674;28;20672;-74
2020/12/28 11:04:10;;;;;;;27.10;15.43;;;;;;;;;;4977049;28;20622;-74
2020/12/28 11:07:14;;;;;;;17.80;12.03;;;;;;;;;;4977087;28;20602;-74
2020/12/28 11:10:18;;;;;;;36.77;19.67;;;;;;;;;;4958702;29;20542;-74
2020/12/28 11:13:23;;;;;;;16.93;10.60;;;;;;;;;;4950682;28;20609;-74
2020/12/28 11:16:27;;;;;;;16.50;11.20;;;;;;;;;;4957658;29;21120;-74
2020/12/28 11:19:31;;;;;;;20.23;13.13;;;;;;;;;;4958839;29;20569;-74
2020/12/28 11:22:36;;;;;;;13.77;8.70;;;;;;;;;;4974504;28;20661;-74
2020/12/28 11:25:40;;;;;;;14.33;9.83;;;;;;;;;;4978108;28;20590;-74
2020/12/28 11:28:45;;;;;;;17.60;9.40;;;;;;;;;;4977779;28;20587;-74
2020/12/28 11:31:49;;;;;;;14.40;9.07;;;;;;;;;;4940020;28;20651;-74
2020/12/28 11:34:53;;;;;;;13.17;8.43;;;;;;;;;;4978492;28;20535;-74
2020/12/28 11:37:57;;;;;;;14.20;7.83;;;;;;;;;;4966689;28;20563;-74
2020/12/28 11:41:02;;;;;;;16.47;8.57;;;;;;;;;;4978162;28;20891;-73
2020/12/28 11:44:10;;;;;;;13.13;8.80;;;;;;;;;;4977271;28;20598;-74
2020/12/28 11:47:15;;;;;;;14.80;8.90;;;;;;;;;;4978682;28;20543;-74
2020/12/28 11:50:18;;;;;;;13.77;8.33;;;;;;;;;;4965958;28;20550;-74
2020/12/28 11:53:23;;;;;;;15.60;10.20;;;;;;;;;;4978028;28;20594;-74
2020/12/28 11:56:27;;;;;;;12.90;10.53;;;;;;;;;;4966353;28;20549;-74
2020/12/28 11:59:31;;;;;;;13.70;10.67;;;;;;;;;;4958791;28;20552;-73
2020/12/28 12:02:35;;;;;;;10.53;9.27;;;;;;;;;;4976471;28;20633;-73
2020/12/28 12:05:39;;;;;;;13.27;8.93;;;;;;;;;;4978229;28;20930;-74
2020/12/28 12:12:11;;;;;;;22.13;6.87;;;;;;;;;;4978609;28;20621;-74
2020/12/28 12:15:14;;;;;;;11.17;7.53;;;;;;;;;;4978269;28;20863;-74
2020/12/28 12:18:19;;;;;;;14.93;9.73;;;;;;;;;;4977753;28;20598;-74
2020/12/28 12:21:23;;;;;;;10.10;7.70;;;;;;;;;;4977419;28;20637;-74
2020/12/28 12:24:27;;;;;;;12.73;8.60;;;;;;;;;;4977658;28;20594;-73
2020/12/28 12:27:31;;;;;;;15.27;8.57;;;;;;;;;;4965096;28;20555;-73
2020/12/28 12:30:35;;;;;;;22.80;12.17;;;;;;;;;;4976942;28;20538;-74
2020/12/28 12:33:40;;;;;;;15.10;9.40;;;;;;;;;;4945433;28;20585;-74
2020/12/28 12:36:46;;;;;;;11.73;7.70;;;;;;;;;;4976835;28;20590;-73
2020/12/28 12:39:50;;;;;;;15.77;10.90;;;;;;;;;;4954808;28;20578;-74
2020/12/28 12:42:54;;;;;;;14.70;8.00;;;;;;;;;;4961795;28;21012;-74
2020/12/28 12:45:58;;;;;;;12.33;7.57;;;;;;;;;;4946090;28;21196;-73
2020/12/28 12:49:02;;;;;;;14.73;8.87;;;;;;;;;;4946174;29;20551;-74
2020/12/28 12:52:13;;;;;;;12.80;8.20;;;;;;;;;;4959027;28;20650;-73
2020/12/28 12:55:18;;;;;;;14.37;8.33;;;;;;;;;;4959639;28;20583;-73
2020/12/28 12:58:22;;;;;;;11.70;8.33;;;;;;;;;;4976589;28;20563;-74
2020/12/28 13:01:26;;;;;;;11.40;8.03;;;;;;;;;;4973883;28;20626;-73
2020/12/28 13:04:31;;;;;;;16.07;8.70;;;;;;;;;;4973464;28;20578;-74
2020/12/28 13:07:40;;;;;;;11.90;8.00;;;;;;;;;;4976693;28;20542;-74
2020/12/28 13:10:44;;;;;;;11.63;8.83;;;;;;;;;;4977059;28;20547;-74
2020/12/28 13:13:49;;;;;;;19.90;10.67;;;;;;;;;;4972905;28;20586;-74
2020/12/28 13:16:53;;;;;;;17.67;9.43;;;;;;;;;;4975728;28;20570;-74
2020/12/28 13:19:57;;;;;;;16.77;9.47;;;;;;;;;;4976701;28;20879;-74
2020/12/28 13:23:02;;;;;;;18.77;12.10;;;;;;;;;;4976432;28;20638;-73
2020/12/28 13:26:06;;;;;;;17.30;10.90;;;;;;;;;;4965162;28;20605;-73
2020/12/28 13:29:11;;;;;;;13.33;9.30;;;;;;;;;;4976728;28;20562;-74
2020/12/28 13:32:15;;;;;;;14.97;9.53;;;;;;;;;;4977010;28;20649;-73
2020/12/28 13:35:19;;;;;;;13.40;8.33;;;;;;;;;;4945676;29;20543;-73
2020/12/28 13:38:23;;;;;;;14.13;8.97;;;;;;;;;;4964844;28;20594;-73
2020/12/28 13:41:28;;;;;;;14.70;8.77;;;;;;;;;;4976922;28;20962;-73
2020/12/28 13:44:32;;;;;;;45.77;26.37;;;;;;;;;;4977801;28;20625;-74
2020/12/28 13:47:37;;;;;;;20.37;14.47;;;;;;;;;;4983984;28;20948;-74
2020/12/28 13:50:41;;;;;;;10.87;8.03;;;;;;;;;;4981983;28;20650;-74
2020/12/28 13:53:46;;;;;;;14.13;7.57;;;;;;;;;;4993449;28;20590;-74
2020/12/28 13:56:54;;;;;;;11.63;8.93;;;;;;;;;;4979813;28;20542;-73
2020/12/28 13:59:58;;;;;;;10.77;7.50;;;;;;;;;;4980274;28;21066;-74
2020/12/28 14:03:02;;;;;;;12.47;7.90;;;;;;;;;;4979898;28;20649;-74
2020/12/28 14:06:08;;;;;;;12.13;8.77;;;;;;;;;;4979639;28;20993;-73
2020/12/28 14:09:12;;;;;;;11.13;7.70;;;;;;;;;;4980733;28;20542;-73
2020/12/28 14:12:17;;;;;;;13.93;9.50;;;;;;;;;;4979681;28;20654;-74
2020/12/28 14:15:22;;;;;;;10.00;7.73;;;;;;;;;;4979910;28;20539;-74
2020/12/28 14:18:27;;;;;;;12.13;7.00;;;;;;;;;;4959872;29;20536;-74
2020/12/28 14:21:34;;;;;;;12.33;7.47;;;;;;;;;;4964961;28;20650;-74
2020/12/28 14:24:38;;;;;;;15.33;9.33;;;;;;;;;;4979248;28;21143;-73
2020/12/28 14:27:42;;;;;;;11.43;7.93;;;;;;;;;;4979689;28;20539;-73
2020/12/28 14:30:46;;;;;;;11.40;7.57;;;;;;;;;;4956223;28;20605;-73
2020/12/28 14:33:51;;;;;;;9.67;7.20;;;;;;;;;;4979166;28;20598;-73
2020/12/28 14:36:55;;;;;;;12.40;7.73;;;;;;;;;;4960355;28;20594;-73
2020/12/28 14:39:59;;;;;;;11.00;7.53;;;;;;;;;;4981886;28;20597;-73
2020/12/28 14:43:05;;;;;;;13.30;7.47;;;;;;;;;;4984439;28;20616;-73
2020/12/28 14:46:14;;;;;;;11.27;7.47;;;;;;;;;;4979141;28;20622;-73
2020/12/28 14:49:19;;;;;;;14.83;7.50;;;;;;;;;;4972322;28;20580;-73
2020/12/28 14:52:23;;;;;;;12.83;7.63;;;;;;;;;;4977194;28;20617;-73
2020/12/28 14:55:27;;;;;;;14.67;8.50;;;;;;;;;;4976461;28;20578;-73
2020/12/28 14:58:32;;;;;;;15.20;9.00;;;;;;;;;;4977452;28;21155;-73
2020/12/28 15:01:36;;;;;;;11.40;8.23;;;;;;;;;;4972009;28;20649;-73
2020/12/28 15:04:40;;;;;;;11.47;8.17;;;;;;;;;;4966019;28;21073;-73
2020/12/28 15:07:44;;;;;;;11.53;8.17;;;;;;;;;;4954802;28;20579;-72
2020/12/28 15:10:49;;;;;;;11.30;8.30;;;;;;;;;;4966056;28;20542;-73
2020/12/28 15:13:53;;;;;;;11.87;8.13;;;;;;;;;;4965415;28;20590;-73
2020/12/28 15:17:00;;;;;;;11.70;8.47;;;;;;;;;;4965372;28;20546;-74
2020/12/28 15:20:04;;;;;;;13.47;8.97;;;;;;;;;;4964355;28;20625;-74
2020/12/28 15:23:08;;;;;;;22.20;13.43;;;;;;;;;;4964785;28;21207;-73
2020/12/28 15:26:13;;;;;;;31.00;14.93;;;;;;;;;;4975983;28;20641;-74
2020/12/28 15:29:17;;;;;;;41.53;17.10;;;;;;;;;;4954418;28;20606;-73
2020/12/28 15:32:21;;;;;;;35.27;17.43;;;;;;;;;;4934057;28;21010;-74
2020/12/28 15:35:25;;;;;;;17.97;11.63;;;;;;;;;;4957227;29;20878;-74
2020/12/28 15:38:29;;;;;;;14.30;10.50;;;;;;;;;;4956962;28;20606;-74
2020/12/28 15:41:33;;;;;;;19.63;13.77;;;;;;;;;;4958026;28;20686;-74
2020/12/28 15:44:37;;;;;;;25.03;16.27;;;;;;;;;;4970488;28;21184;-75
2020/12/28 15:47:41;;;;;;;48.30;37.83;;;;;;;;;;4976256;28;20597;-74
2020/12/28 15:50:45;;;;;;;29.53;19.63;;;;;;;;;;4975497;28;20597;-76
2020/12/28 15:53:49;;;;;;;41.33;27.30;;;;;;;;;;4964593;28;20550;-75
2020/12/28 15:56:54;;;;;;;25.57;18.27;;;;;;;;;;4975522;28;20605;-76
2020/12/28 15:59:58;;;;;;;13.13;9.40;;;;;;;;;;4976040;28;20549;-76
2020/12/28 16:03:03;;;;;;;10.93;7.90;;;;;;;;;;4944798;29;20626;-77
2020/12/28 16:06:10;;;;;;;9.73;6.97;;;;;;;;;;4964488;28;20630;-77
2020/12/28 16:09:15;;;;;;;28.20;15.57;;;;;;;;;;4975111;28;20555;-77
2020/12/28 16:12:19;;;;;;;44.70;26.53;;;;;;;;;;4963235;28;20656;-76
2020/12/28 16:15:23;;;;;;;14.90;10.03;;;;;;;;;;4964072;28;21178;-77
2020/12/28 16:18:28;;;;;;;11.23;9.10;;;;;;;;;;4963582;28;20603;-77
2020/12/28 16:21:32;;;;;;;6.43;4.93;;;;;;;;;;4974208;28;20990;-77
2020/12/28 16:24:36;;;;;;;9.10;7.10;;;;;;;;;;4963276;28;20594;-76
2020/12/28 16:27:41;;;;;;;9.03;6.53;;;;;;;;;;4975629;28;20606;-76
2020/12/28 16:30:45;;;;;;;7.73;6.07;;;;;;;;;;4963075;28;20626;-76
2020/12/28 16:33:49;;;;;;;6.83;5.07;;;;;;;;;;4974667;28;20551;-76
2020/12/28 16:36:58;;;;;;;6.60;5.90;;;;;;;;;;4974612;28;20590;-76
2020/12/28 16:40:05;;;;;;;6.67;5.43;;;;;;;;;;4974129;28;21191;-76
2020/12/28 16:43:09;;;;;;;6.93;5.00;;;;;;;;;;4973524;28;20594;-77
2020/12/28 16:46:14;;;;;;;5.87;4.97;;;;;;;;;;4955811;29;20591;-77
2020/12/28 16:49:18;;;;;;;6.53;4.13;;;;;;;;;;4955227;29;20548;-77
2020/12/28 16:52:25;;;;;;;5.33;4.03;;;;;;;;;;4955674;29;20626;-76
2020/12/28 16:55:29;;;;;;;6.47;4.23;;;;;;;;;;4956074;29;20872;-76
2020/12/28 16:58:33;;;;;;;5.23;4.23;;;;;;;;;;4955478;29;21145;-77
2020/12/28 17:01:37;;;;;;;6.13;4.27;;;;;;;;;;4954663;28;20650;-75
2020/12/28 17:04:41;;;;;;;7.40;6.60;;;;;;;;;;4955588;29;20543;-75
2020/12/28 17:07:46;;;;;;;7.43;5.50;;;;;;;;;;4969847;28;20630;-75
2020/12/28 17:10:52;;;;;;;6.47;5.03;;;;;;;;;;4975018;28;21077;-74
2020/12/28 17:13:56;;;;;;;5.93;5.00;;;;;;;;;;4974293;28;20590;-75
2020/12/28 17:17:00;;;;;;;5.73;4.30;;;;;;;;;;4974211;28;20590;-74
2020/12/28 17:20:04;;;;;;;6.80;5.87;;;;;;;;;;4974430;28;20590;-75
2020/12/28 17:23:09;;;;;;;5.53;4.20;;;;;;;;;;4973725;28;20621;-74
2020/12/28 17:26:13;;;;;;;5.43;4.87;;;;;;;;;;4973528;28;20634;-75
2020/12/28 17:29:17;;;;;;;6.00;5.13;;;;;;;;;;4974236;28;20550;-74
2020/12/28 17:32:27;;;;;;;8.27;5.73;;;;;;;;;;4974345;28;20637;-74
2020/12/28 17:35:31;;;;;;;7.97;5.70;;;;;;;;;;4967860;28;20617;-74
2020/12/28 17:38:38;;;;;;;12.50;8.27;;;;;;;;;;4969183;28;20578;-74
2020/12/28 17:41:42;;;;;;;42.03;23.73;;;;;;;;;;4977726;28;21002;-75
2020/12/28 17:44:46;;;;;;;11.40;7.67;;;;;;;;;;4975387;28;20630;-74
2020/12/28 17:47:50;;;;;;;10.03;7.40;;;;;;;;;;4973781;28;20622;-74
2020/12/28 17:50:54;;;;;;;6.97;6.00;;;;;;;;;;4974252;28;20601;-74
2020/12/28 17:53:59;;;;;;;9.77;5.47;;;;;;;;;;4972714;28;20629;-74
2020/12/28 17:57:03;;;;;;;15.53;12.70;;;;;;;;;;4973200;28;20594;-74
2020/12/28 18:00:08;;;;;;;11.63;9.57;;;;;;;;;;4977332;28;20590;-73
2020/12/28 18:03:17;;;;;;;7.33;6.17;;;;;;;;;;4977107;28;20590;-73
2020/12/28 18:06:21;;;;;;;8.10;5.87;;;;;;;;;;4942781;28;21164;-73
2020/12/28 18:09:25;;;;;;;9.03;6.73;;;;;;;;;;4972221;28;20598;-74
2020/12/28 18:12:31;;;;;;;7.77;6.60;;;;;;;;;;4973811;28;20649;-73
2020/12/28 18:15:35;;;;;;;8.50;5.90;;;;;;;;;;4973124;28;20583;-73
2020/12/28 18:18:39;;;;;;;7.27;5.80;;;;;;;;;;4961437;28;20576;-74
2020/12/28 18:21:47;;;;;;;8.70;6.77;;;;;;;;;;4954549;29;20623;-74
2020/12/28 18:24:52;;;;;;;4.43;4.00;;;;;;;;;;4955692;28;20579;-73
2020/12/28 18:27:57;;;;;;;5.50;4.13;;;;;;;;;;4959475;28;20971;-73
2020/12/28 18:31:02;;;;;;;5.10;4.13;;;;;;;;;;4974423;28;20633;-73
2020/12/28 18:34:10;;;;;;;10.93;5.37;;;;;;;;;;4975546;28;20633;-74
2020/12/28 18:37:14;;;;;;;19.90;8.67;;;;;;;;;;4977329;28;20586;-73
2020/12/28 18:40:18;;;;;;;10.30;4.90;;;;;;;;;;4976564;28;20590;-73
2020/12/28 18:43:23;;;;;;;5.50;4.57;;;;;;;;;;4977393;28;20558;-73
2020/12/28 18:46:27;;;;;;;8.93;6.00;;;;;;;;;;4976665;28;20590;-73
2020/12/28 18:49:34;;;;;;;9.90;6.93;;;;;;;;;;4957933;29;20535;-73
2020/12/28 18:52:40;;;;;;;8.77;5.03;;;;;;;;;;4970727;28;20650;-73
2020/12/28 18:55:46;;;;;;;9.73;5.93;;;;;;;;;;4977333;28;20551;-73
2020/12/28 18:58:50;;;;;;;11.90;7.30;;;;;;;;;;4959175;28;20587;-73
2020/12/28 19:01:55;;;;;;;66.90;31.47;;;;;;;;;;4946548;29;20634;-73
2020/12/28 19:05:00;;;;;;;46.60;25.43;;;;;;;;;;4958090;28;20586;-73
2020/12/28 19:08:04;;;;;;;46.90;27.30;;;;;;;;;;4968725;28;20641;-73
2020/12/28 19:11:12;;;;;;;39.13;24.50;;;;;;;;;;4976698;28;20629;-72
2020/12/28 19:14:16;;;;;;;18.70;13.03;;;;;;;;;;4976521;28;21175;-72
2020/12/28 19:17:21;;;;;;;8.70;6.07;;;;;;;;;;4969446;28;20626;-71
2020/12/28 19:20:25;;;;;;;6.63;5.17;;;;;;;;;;4976297;28;20602;-72
2020/12/28 19:23:29;;;;;;;6.37;4.90;;;;;;;;;;4969165;28;20594;-73
2020/12/28 19:26:32;;;;;;;4.80;4.07;;;;;;;;;;4976248;28;20621;-73
2020/12/28 19:29:37;;;;;;;4.50;3.73;;;;;;;;;;4951934;29;21153;-73
2020/12/28 19:32:41;;;;;;;5.93;4.10;;;;;;;;;;4962893;28;21227;-73
2020/12/28 19:35:45;;;;;;;6.03;3.90;;;;;;;;;;4976836;28;20539;-72
2020/12/28 19:38:49;;;;;;;5.37;3.67;;;;;;;;;;4958624;28;20579;-73
2020/12/28 19:41:53;;;;;;;4.43;3.40;;;;;;;;;;4975521;28;20649;-73
2020/12/28 19:44:58;;;;;;;4.60;3.40;;;;;;;;;;4976341;28;20551;-73
2020/12/28 19:48:02;;;;;;;5.37;3.37;;;;;;;;;;4974517;28;20634;-73